EastWest Aircraft Sales has several offices across the USA. See map for information on the nearest airstrips.

Naples Municipal Airport

Available data for KAPF from the past 2 hours
NAPLES MUNICIPAL, FL
Metar
KAPF 241453Z 09013KT 10SM CLR 28/18 A3009 RMK AO2 SLP188 T02780183 51004

14:53 UTC

Wind: 90° 13kt

Visibility: 10 SM

Sky:

Temp: 28 deg C / 82.4 deg F

Dewpoint: 18 deg C / 64.4 deg F

Pressure: 30.09 inHg

TAF
KAPF 241459Z 2415/2512 08015G25KT P6SM SCT035 SCT060 FM250200 06008KT P6SM FEW030

Hillsboro Airport

Available data for KHIO from the past 2 hours
HILLSBORO/PORTLD, OR
Metar
KHIO 241523Z 21005KT 10SM SCT008 BKN030 OVC036 13/09 A3000 RMK AO2 RAB1456E07 P0000 T01280089

15:23 UTC

Wind: 210° 5kt

Visibility: 10 SM

Sky: SCT 800 ft

Temp: 13 deg C / 55.4 deg F

Dewpoint: 9 deg C / 48.2 deg F

Pressure: 30 inHg

TAF
KHIO 241136Z 2412/2512 22007KT P6SM BKN025 FM241900 28012G20KT P6SM VCSH SCT035 BKN050 FM250300 31007KT P6SM VCSH SCT035 BKN050 FM250600 VRB03KT P6SM VCSH BKN025
Pireps (4)
UAO UA /OV KUAO350010/TM 1522/FL025/TP C172/SK FEW025-TOPUNKN/WX -RA/RM DURD RY17
PDX UA /OV KPDX280002/TM 1448/FL014/TP B738/SK OVC014
HIO UA /OV HIO/TM 1443/FL030/TP DA42/SK OVC035/RM DURC
HIO UA /OV HIO/TM 1436/FL070/TP BE9L/SK BKN030 TOP042 BKN053 TOP070/RM DURC